Time;durP1;ratioP1;P1;durP2;ratioP2;P2;SDS_P1;SDS_P2;PMS_P1;PMS_P2;Temp;Humidity;BMP_temperature;BMP_pressure;BME280_temperature;BME280_humidity;BME280_pressure;Samples;Min_cycle;Max_cycle;Signal;HPM_P1;HPM_P2
2022/04/22 00:00:27;;;;;;;3.83;2.97;;;10.40;99.90;;;;;;5115858;28;20480;-69
2022/04/22 00:02:54;;;;;;;5.57;3.57;;;10.30;99.90;;;;;;5115699;28;20459;-69
2022/04/22 00:05:23;;;;;;;8.53;4.27;;;10.20;99.90;;;;;;5115622;28;20472;-70
2022/04/22 00:07:49;;;;;;;9.47;3.50;;;10.10;99.90;;;;;;5115587;28;20788;-69
2022/04/22 00:10:16;;;;;;;5.77;3.87;;;10.10;99.90;;;;;;5115540;28;20460;-68
2022/04/22 00:12:44;;;;;;;6.73;3.50;;;10.00;99.90;;;;;;5115505;28;20487;-69
2022/04/22 00:15:13;;;;;;;8.70;3.87;;;10.00;99.90;;;;;;5115414;28;20493;-68
2022/04/22 00:17:40;;;;;;;8.20;6.07;;;9.90;99.90;;;;;;5116301;28;20513;-68
2022/04/22 00:20:09;;;;;;;10.23;5.03;;;9.90;99.90;;;;;;5115175;28;20466;-69
2022/04/22 00:22:39;;;;;;;5.83;4.30;;;9.80;99.90;;;;;;5115634;28;20491;-69
2022/04/22 00:25:09;;;;;;;7.07;4.73;;;9.70;99.90;;;;;;5115213;28;20467;-69
2022/04/22 00:27:36;;;;;;;7.77;4.57;;;9.60;99.90;;;;;;5115499;28;20463;-69
2022/04/22 00:30:03;;;;;;;7.80;5.30;;;9.50;99.90;;;;;;5115419;28;20452;-69
2022/04/22 00:32:33;;;;;;;5.93;4.83;;;9.50;99.90;;;;;;5115534;28;20472;-69
2022/04/22 00:35:00;;;;;;;7.20;4.73;;;9.40;99.90;;;;;;5115696;28;20781;-69
2022/04/22 00:37:27;;;;;;;6.20;4.57;;;9.40;99.90;;;;;;5115128;28;20548;-69
2022/04/22 00:39:55;;;;;;;14.47;5.33;;;9.30;99.90;;;;;;5115070;28;20452;-69
2022/04/22 00:42:21;;;;;;;9.80;4.80;;;9.30;99.90;;;;;;5115321;28;20854;-69
2022/04/22 00:44:48;;;;;;;7.67;4.63;;;9.20;99.90;;;;;;5115008;28;20463;-69
2022/04/22 00:47:15;;;;;;;6.50;5.13;;;9.20;99.90;;;;;;5114980;28;20921;-69
2022/04/22 00:49:42;;;;;;;8.67;5.30;;;9.10;99.90;;;;;;5115096;28;20456;-69
2022/04/22 00:52:09;;;;;;;10.90;5.23;;;9.00;99.90;;;;;;5116744;28;20487;-69
2022/04/22 00:54:36;;;;;;;8.60;4.53;;;9.00;99.90;;;;;;5119006;28;20456;-69
2022/04/22 00:57:05;;;;;;;8.80;5.27;;;8.90;99.90;;;;;;5118685;28;20484;-69
2022/04/22 00:59:32;;;;;;;6.57;5.57;;;8.90;99.90;;;;;;5119221;28;20452;-69
2022/04/22 01:01:59;;;;;;;10.03;5.37;;;8.90;99.90;;;;;;5119040;28;20507;-69
2022/04/22 01:09:56;;;;;;;9.03;6.17;;;8.70;99.90;;;;;;5119538;28;20424;-68
2022/04/22 01:12:28;;;;;;;9.13;5.47;;;8.60;99.90;;;;;;5118795;28;20479;-69
2022/04/22 01:14:56;;;;;;;8.73;5.40;;;8.60;99.90;;;;;;5118926;28;20444;-69
2022/04/22 01:17:23;;;;;;;11.17;5.37;;;8.60;99.90;;;;;;5119807;28;20456;-69
2022/04/22 01:19:50;;;;;;;12.70;5.93;;;8.60;99.90;;;;;;5119124;28;20464;-69
2022/04/22 01:22:19;;;;;;;7.93;5.33;;;8.50;99.90;;;;;;5118975;28;20461;-69
2022/04/22 01:24:46;;;;;;;8.67;6.10;;;8.40;99.90;;;;;;5118742;28;20525;-69
2022/04/22 01:27:14;;;;;;;12.30;7.03;;;8.40;99.90;;;;;;5118562;28;20460;-69
2022/04/22 01:29:41;;;;;;;10.00;6.00;;;8.40;99.90;;;;;;5118962;28;20452;-69
2022/04/22 01:32:09;;;;;;;10.80;5.90;;;8.30;99.90;;;;;;5118502;28;20457;-69
2022/04/22 01:34:37;;;;;;;10.57;6.33;;;8.30;99.90;;;;;;5118461;28;20690;-69
2022/04/22 01:37:04;;;;;;;9.40;5.47;;;8.30;99.90;;;;;;5118518;28;20456;-69
2022/04/22 01:39:32;;;;;;;10.77;6.10;;;8.30;99.90;;;;;;5118472;28;20783;-69
2022/04/22 01:41:59;;;;;;;7.30;5.47;;;8.30;99.90;;;;;;5118307;28;20452;-69
2022/04/22 01:44:26;;;;;;;10.13;6.20;;;8.30;99.90;;;;;;5118171;28;20505;-69
2022/04/22 01:46:52;;;;;;;10.90;6.17;;;8.30;99.90;;;;;;5118242;28;20521;-70
2022/04/22 01:49:19;;;;;;;8.40;5.63;;;8.30;99.90;;;;;;5118105;28;20456;-69
2022/04/22 01:51:46;;;;;;;9.73;6.33;;;8.20;99.90;;;;;;5118108;28;20461;-69
2022/04/22 01:54:14;;;;;;;10.23;7.17;;;8.10;99.90;;;;;;5118468;28;20491;-69
2022/04/22 01:56:42;;;;;;;7.43;5.90;;;8.10;99.90;;;;;;5117717;28;20820;-69
2022/04/22 01:59:08;;;;;;;10.47;6.47;;;8.10;99.90;;;;;;5118070;28;20509;-69
2022/04/22 02:01:35;;;;;;;10.37;6.73;;;8.00;99.90;;;;;;5118207;28;20456;-69
2022/04/22 02:04:02;;;;;;;8.47;6.07;;;8.00;99.90;;;;;;5117615;28;20464;-70
2022/04/22 02:06:29;;;;;;;8.83;5.90;;;8.00;99.90;;;;;;5117562;28;20471;-69
2022/04/22 02:08:56;;;;;;;8.23;5.93;;;8.00;99.90;;;;;;5117825;28;20605;-69
2022/04/22 02:11:22;;;;;;;10.17;6.53;;;8.00;99.90;;;;;;5118076;28;20460;-69
2022/04/22 02:13:50;;;;;;;11.47;6.60;;;8.00;99.90;;;;;;5117934;28;20476;-70
2022/04/22 02:16:17;;;;;;;7.27;5.90;;;7.90;99.90;;;;;;5117915;28;20457;-70
2022/04/22 02:18:44;;;;;;;11.10;6.37;;;7.90;99.90;;;;;;5117813;28;20460;-70
2022/04/22 02:21:11;;;;;;;13.00;6.50;;;7.80;99.90;;;;;;5117752;28;20460;-70
2022/04/22 02:23:40;;;;;;;10.30;7.30;;;7.80;99.90;;;;;;5117866;28;20460;-69
2022/04/22 02:26:07;;;;;;;11.13;7.07;;;7.80;99.90;;;;;;5118100;28;20452;-70
2022/04/22 02:28:33;;;;;;;9.40;6.20;;;7.80;99.90;;;;;;5117966;28;20458;-69
2022/04/22 02:31:03;;;;;;;8.60;5.97;;;7.80;99.90;;;;;;5117320;28;20510;-70
2022/04/22 02:33:31;;;;;;;9.73;6.70;;;7.80;99.90;;;;;;5117464;28;20498;-69
2022/04/22 02:35:59;;;;;;;6.47;5.77;;;7.80;99.90;;;;;;5117956;28;20823;-69
2022/04/22 02:38:25;;;;;;;8.67;5.80;;;7.80;99.90;;;;;;5116987;28;20536;-68
2022/04/22 02:46:21;;;;;;;12.30;6.63;;;7.90;99.90;;;;;;5116942;28;20561;-68
2022/04/22 02:48:48;;;;;;;10.50;6.80;;;7.90;99.90;;;;;;5116814;28;20460;-69
2022/04/22 02:51:15;;;;;;;13.03;6.77;;;8.00;99.90;;;;;;5116852;28;20456;-69
2022/04/22 02:53:41;;;;;;;7.50;6.40;;;8.00;99.90;;;;;;5117007;28;20484;-69
2022/04/22 02:56:08;;;;;;;15.30;7.17;;;8.00;99.90;;;;;;5116409;28;20491;-70
2022/04/22 02:58:35;;;;;;;12.50;7.23;;;7.90;99.90;;;;;;5116532;28;20460;-70
2022/04/22 03:01:02;;;;;;;10.80;6.30;;;7.90;99.90;;;;;;5116958;28;20464;-69
2022/04/22 03:03:31;;;;;;;9.20;6.87;;;7.90;99.90;;;;;;5117274;28;20941;-69
2022/04/22 03:05:58;;;;;;;10.50;6.83;;;7.90;99.90;;;;;;5116782;28;20541;-68
2022/04/22 03:08:24;;;;;;;11.43;7.83;;;7.80;99.90;;;;;;5116615;28;20968;-69
2022/04/22 03:10:51;;;;;;;10.27;6.57;;;7.80;99.90;;;;;;5117467;28;20465;-68
2022/04/22 03:13:18;;;;;;;10.33;6.80;;;7.80;99.90;;;;;;5116322;28;20557;-68
2022/04/22 03:15:45;;;;;;;14.63;7.50;;;7.80;99.90;;;;;;5115828;28;20467;-68
2022/04/22 03:18:12;;;;;;;13.30;8.47;;;7.80;99.90;;;;;;5116603;28;20463;-68
2022/04/22 03:20:40;;;;;;;11.33;7.40;;;7.70;99.90;;;;;;5116367;28;20515;-69
2022/04/22 03:23:07;;;;;;;10.53;7.60;;;7.70;99.90;;;;;;5116421;28;20514;-68
2022/04/22 03:25:33;;;;;;;11.47;7.53;;;7.70;99.90;;;;;;5116290;28;20452;-68
2022/04/22 03:28:00;;;;;;;12.10;6.97;;;7.70;99.90;;;;;;5116499;28;20467;-69
2022/04/22 03:30:27;;;;;;;12.67;7.33;;;7.60;99.90;;;;;;5116366;28;20453;-69
2022/04/22 03:32:54;;;;;;;13.50;7.50;;;7.60;99.90;;;;;;5115868;28;20974;-69
2022/04/22 03:35:21;;;;;;;8.60;6.80;;;7.50;99.90;;;;;;5116042;28;20494;-68
2022/04/22 03:37:49;;;;;;;9.03;6.57;;;7.50;99.90;;;;;;5115860;28;20460;-68
2022/04/22 03:40:15;;;;;;;9.93;6.83;;;7.50;99.90;;;;;;5116088;28;20449;-68
2022/04/22 03:42:42;;;;;;;14.67;7.97;;;7.40;99.90;;;;;;5115836;28;20463;-68
2022/04/22 03:45:11;;;;;;;12.13;8.00;;;7.40;99.90;;;;;;5115856;28;20471;-69
2022/04/22 03:47:38;;;;;;;12.23;7.50;;;7.40;99.90;;;;;;5115862;28;20551;-69
2022/04/22 03:50:05;;;;;;;12.77;7.50;;;7.40;99.90;;;;;;5116026;28;20785;-69
2022/04/22 03:52:32;;;;;;;9.97;7.20;;;7.40;99.90;;;;;;5115861;28;20456;-69
2022/04/22 03:55:00;;;;;;;14.70;8.20;;;7.40;99.90;;;;;;5115542;28;20552;-69
2022/04/22 04:00:12;;;;;;;16.50;7.70;;;7.50;99.90;;;;;;5115637;28;20424;-69
2022/04/22 04:02:38;;;;;;;10.97;7.50;;;7.50;99.90;;;;;;5115984;28;20460;-69
2022/04/22 04:05:06;;;;;;;14.67;7.63;;;7.50;99.90;;;;;;5115801;28;20453;-68
2022/04/22 04:07:33;;;;;;;12.07;8.13;;;7.50;99.90;;;;;;5115735;28;20453;-68
2022/04/22 04:18:13;;;;;;;10.47;7.07;;;7.50;99.90;;;;;;5115192;28;20416;-68
2022/04/22 04:23:24;;;;;;;10.83;7.50;;;7.40;99.90;;;;;;5116009;28;20502;-69
2022/04/22 04:25:52;;;;;;;18.20;8.70;;;7.30;99.90;;;;;;5115958;28;20459;-69
2022/04/22 04:28:19;;;;;;;10.60;8.60;;;7.30;99.90;;;;;;5114966;28;20452;-70
2022/04/22 04:30:46;;;;;;;13.90;8.10;;;7.30;99.90;;;;;;5115055;28;20782;-69
2022/04/22 04:33:13;;;;;;;15.20;8.57;;;7.30;99.90;;;;;;5115141;28;20520;-68
2022/04/22 04:35:40;;;;;;;11.90;8.67;;;7.30;99.90;;;;;;5115201;28;20452;-69
2022/04/22 04:38:08;;;;;;;18.37;10.20;;;7.30;99.90;;;;;;5114988;28;20456;-69
2022/04/22 04:40:35;;;;;;;12.83;9.13;;;7.30;99.90;;;;;;5115107;28;20740;-69
2022/04/22 04:43:03;;;;;;;10.97;8.30;;;7.30;99.90;;;;;;5115112;28;20500;-69
2022/04/22 04:45:30;;;;;;;9.90;8.70;;;7.30;99.90;;;;;;5115304;28;20456;-70
2022/04/22 04:47:57;;;;;;;10.77;8.10;;;7.30;99.90;;;;;;5115159;28;20467;-68
2022/04/22 04:50:24;;;;;;;10.90;8.00;;;7.40;99.90;;;;;;5114770;28;20457;-68
2022/04/22 04:52:50;;;;;;;13.53;8.27;;;7.40;99.90;;;;;;5114596;28;20469;-68
2022/04/22 04:55:17;;;;;;;11.37;8.10;;;7.40;99.90;;;;;;5114680;28;20488;-68
2022/04/22 04:57:44;;;;;;;57.27;37.43;;;7.50;99.90;;;;;;5115552;28;20440;-68
2022/04/22 05:00:13;;;;;;;17.20;12.30;;;7.50;99.90;;;;;;5115237;28;20453;-69
2022/04/22 05:02:40;;;;;;;17.63;9.20;;;7.60;99.90;;;;;;5114900;28;20452;-69
2022/04/22 05:05:09;;;;;;;10.83;7.90;;;7.70;99.90;;;;;;5114735;28;20460;-69
2022/04/22 05:07:47;;;;;;;11.07;7.60;;;7.80;99.90;;;;;;5114796;28;20460;-69
2022/04/22 05:10:13;;;;;;;13.57;8.70;;;7.80;99.90;;;;;;5114841;28;20440;-69
2022/04/22 05:12:41;;;;;;;11.17;8.60;;;7.90;99.90;;;;;;5114887;28;20828;-69
2022/04/22 05:15:10;;;;;;;13.17;8.20;;;7.90;99.90;;;;;;5114477;28;20571;-68
2022/04/22 05:17:39;;;;;;;15.17;8.20;;;8.00;99.90;;;;;;5114778;28;20456;-69
2022/04/22 05:20:07;;;;;;;13.07;8.03;;;8.00;99.90;;;;;;5114611;28;20456;-68
2022/04/22 05:22:34;;;;;;;36.20;26.00;;;8.10;99.90;;;;;;5114426;28;20954;-68
2022/04/22 05:25:00;;;;;;;17.60;13.40;;;8.10;99.90;;;;;;5115140;28;20459;-68
2022/04/22 05:27:27;;;;;;;14.43;8.13;;;8.20;99.90;;;;;;5114512;28;20456;-70
2022/04/22 05:32:40;;;;;;;10.30;7.90;;;8.40;99.90;;;;;;5114500;28;20940;-69
2022/04/22 05:35:09;;;;;;;11.17;7.47;;;8.50;99.90;;;;;;5114264;28;20476;-69
2022/04/22 05:37:46;;;;;;;12.77;8.20;;;8.50;99.90;;;;;;5115067;28;20939;-68
2022/04/22 05:40:16;;;;;;;10.63;7.23;;;8.50;99.90;;;;;;5118366;28;20432;-69
2022/04/22 05:42:43;;;;;;;13.13;9.40;;;8.50;99.90;;;;;;5118498;28;20497;-69
2022/04/22 05:45:11;;;;;;;9.60;7.57;;;8.60;99.90;;;;;;5117802;28;20932;-68
2022/04/22 05:47:41;;;;;;;10.97;9.07;;;8.60;99.90;;;;;;5117921;28;20456;-68
2022/04/22 05:50:09;;;;;;;12.00;8.47;;;8.70;99.90;;;;;;5118119;28;20464;-69
2022/04/22 05:52:38;;;;;;;10.00;8.00;;;8.70;99.90;;;;;;5117757;28;20906;-69
2022/04/22 05:55:07;;;;;;;15.57;8.40;;;8.70;99.90;;;;;;5117969;28;20524;-69
2022/04/22 05:57:35;;;;;;;18.87;8.73;;;8.70;99.90;;;;;;5118009;28;20441;-69
2022/04/22 06:00:05;;;;;;;12.93;7.73;;;8.70;99.90;;;;;;5117881;28;20484;-68
2022/04/22 06:02:32;;;;;;;8.97;7.97;;;8.70;99.90;;;;;;5117683;28;20969;-68
2022/04/22 06:05:00;;;;;;;11.97;8.10;;;8.80;99.90;;;;;;5117815;28;20453;-68
2022/04/22 06:07:27;;;;;;;13.40;8.40;;;8.90;99.90;;;;;;5117396;28;20457;-69
2022/04/22 06:12:38;;;;;;;13.17;8.20;;;9.00;99.90;;;;;;5117649;28;20883;-69
2022/04/22 06:15:05;;;;;;;15.63;7.93;;;9.00;99.90;;;;;;5117784;28;20483;-69
2022/04/22 06:17:33;;;;;;;9.80;7.67;;;9.00;99.90;;;;;;5117414;28;20452;-68
2022/04/22 06:20:01;;;;;;;11.27;8.10;;;9.00;99.90;;;;;;5117221;28;20464;-68
2022/04/22 06:22:27;;;;;;;11.03;7.87;;;9.00;99.90;;;;;;5117465;28;20529;-69
2022/04/22 06:24:54;;;;;;;11.63;8.43;;;9.00;99.90;;;;;;5117463;28;20452;-68
2022/04/22 06:27:28;;;;;;;9.97;7.80;;;9.10;99.90;;;;;;5117312;28;20512;-68
2022/04/22 06:29:56;;;;;;;8.53;6.97;;;9.20;99.90;;;;;;5117349;28;20773;-70
2022/04/22 06:32:26;;;;;;;11.23;7.03;;;9.30;99.90;;;;;;5116821;28;20513;-69
2022/04/22 06:34:53;;;;;;;10.93;7.77;;;9.50;99.90;;;;;;5117326;28;20476;-69
2022/04/22 06:37:22;;;;;;;12.63;7.47;;;9.60;99.90;;;;;;5116826;28;20467;-68
2022/04/22 06:48:04;;;;;;;14.40;10.87;;;10.10;99.90;;;;;;5116960;28;20803;-69
2022/04/22 06:50:31;;;;;;;14.63;10.77;;;10.20;99.90;;;;;;5116854;28;20474;-69
2022/04/22 06:52:59;;;;;;;9.87;6.67;;;10.30;99.90;;;;;;5116953;28;20452;-68
2022/04/22 06:55:27;;;;;;;11.90;6.73;;;10.30;99.90;;;;;;5116665;28;20485;-69
2022/04/22 06:57:58;;;;;;;12.03;6.60;;;10.40;99.90;;;;;;5116976;28;20483;-69
2022/04/22 07:00:25;;;;;;;11.17;7.00;;;10.50;99.90;;;;;;5117038;28;20441;-69
2022/04/22 07:02:52;;;;;;;9.30;6.90;;;10.50;99.90;;;;;;5116606;28;20835;-69
2022/04/22 07:05:20;;;;;;;10.60;7.20;;;10.60;99.90;;;;;;5116423;28;20452;-70
2022/04/22 07:07:47;;;;;;;9.20;6.70;;;10.70;99.90;;;;;;5116750;28;20468;-69
2022/04/22 07:10:16;;;;;;;20.60;7.87;;;10.80;99.90;;;;;;5116589;28;20480;-69
2022/04/22 07:12:43;;;;;;;7.97;6.47;;;10.90;99.90;;;;;;5116273;28;20457;-70
2022/04/22 07:15:11;;;;;;;10.90;7.50;;;10.90;99.90;;;;;;5116287;28;20487;-68
2022/04/22 07:17:41;;;;;;;8.97;6.40;;;11.00;99.90;;;;;;5116378;28;20782;-69
2022/04/22 07:20:10;;;;;;;7.00;6.30;;;11.00;99.90;;;;;;5115879;28;21005;-69
2022/04/22 07:22:38;;;;;;;9.27;6.10;;;11.10;99.90;;;;;;5116665;28;20535;-69
2022/04/22 07:25:05;;;;;;;16.40;7.30;;;11.20;99.90;;;;;;5116234;28;20460;-69
2022/04/22 07:27:37;;;;;;;9.33;6.63;;;11.30;99.90;;;;;;5116402;28;20452;-69
2022/04/22 07:30:05;;;;;;;8.97;7.10;;;11.40;99.90;;;;;;5116555;28;20458;-69
2022/04/22 07:32:37;;;;;;;10.60;6.87;;;11.40;99.90;;;;;;5116014;28;20462;-68
2022/04/22 07:35:04;;;;;;;8.50;6.63;;;11.50;99.90;;;;;;5116476;28;20474;-70
2022/04/22 07:37:31;;;;;;;8.37;7.10;;;11.60;99.90;;;;;;5115836;28;20457;-69
2022/04/22 07:39:58;;;;;;;10.87;7.73;;;11.70;99.90;;;;;;5116272;28;20456;-69
2022/04/22 07:42:25;;;;;;;12.77;7.60;;;11.70;99.90;;;;;;5115461;28;20467;-69
2022/04/22 07:47:41;;;;;;;10.30;7.90;;;11.70;99.90;;;;;;5115661;28;20427;-69
2022/04/22 07:50:08;;;;;;;8.30;7.07;;;11.80;99.90;;;;;;5115540;28;20466;-69
2022/04/22 07:52:36;;;;;;;10.50;8.70;;;11.80;99.90;;;;;;5115746;28;20453;-69
2022/04/22 07:55:04;;;;;;;11.63;7.60;;;11.70;99.90;;;;;;5115565;28;20507;-68
2022/04/22 07:57:31;;;;;;;12.47;8.53;;;11.70;99.90;;;;;;5115471;28;20437;-68
2022/04/22 07:59:59;;;;;;;11.37;8.20;;;11.70;99.90;;;;;;5115347;28;20580;-70
2022/04/22 08:02:26;;;;;;;10.13;8.40;;;11.80;99.90;;;;;;5115369;28;20513;-68
2022/04/22 08:04:52;;;;;;;12.20;9.00;;;11.80;99.90;;;;;;5115535;28;20456;-68
2022/04/22 08:07:19;;;;;;;10.07;8.90;;;11.90;99.90;;;;;;5115512;28;20768;-69
2022/04/22 08:09:46;;;;;;;17.50;11.07;;;11.90;99.90;;;;;;5115486;28;20798;-69
2022/04/22 08:12:15;;;;;;;10.13;8.10;;;11.90;99.90;;;;;;5115207;28;20467;-69
2022/04/22 08:14:42;;;;;;;9.67;8.47;;;11.90;99.90;;;;;;5115373;28;20557;-69
2022/04/22 08:17:10;;;;;;;12.30;9.03;;;11.90;99.90;;;;;;5115426;28;20484;-69
2022/04/22 08:19:37;;;;;;;17.27;9.53;;;12.10;99.90;;;;;;5115207;28;20453;-69
2022/04/22 08:22:04;;;;;;;10.93;9.13;;;12.10;99.90;;;;;;5115072;28;20467;-68
2022/04/22 08:24:31;;;;;;;16.67;9.57;;;12.20;99.90;;;;;;5115208;28;20463;-69
2022/04/22 08:26:59;;;;;;;11.67;9.00;;;12.30;99.90;;;;;;5115209;28;20468;-69
2022/04/22 08:29:25;;;;;;;18.70;10.27;;;12.50;99.90;;;;;;5115126;28;20456;-70
2022/04/22 08:31:53;;;;;;;15.00;9.40;;;12.60;99.90;;;;;;5114697;28;20452;-69
2022/04/22 08:34:21;;;;;;;17.53;10.73;;;12.60;99.90;;;;;;5115099;28;20463;-70
2022/04/22 08:36:47;;;;;;;12.90;9.40;;;12.60;99.90;;;;;;5114890;28;20467;-68
2022/04/22 08:39:14;;;;;;;12.93;9.77;;;12.70;99.90;;;;;;5114866;28;20456;-68
2022/04/22 08:41:42;;;;;;;14.53;9.70;;;12.70;99.90;;;;;;5115138;28;20592;-69
2022/04/22 08:44:13;;;;;;;15.90;9.13;;;12.80;99.90;;;;;;5114852;28;20487;-68
2022/04/22 08:52:26;;;;;;;14.77;10.03;;;12.90;99.90;;;;;;5052971;28;20463;-69
2022/04/22 08:54:54;;;;;;;14.33;9.33;;;12.90;99.90;;;;;;5052293;28;20556;-68
2022/04/22 08:57:22;;;;;;;13.67;9.43;;;13.00;99.90;;;;;;5080790;28;20913;-69
2022/04/22 08:59:49;;;;;;;12.43;9.70;;;13.00;99.90;;;;;;5114921;28;20802;-68
2022/04/22 09:02:17;;;;;;;11.43;8.87;;;13.10;99.90;;;;;;5114651;28;20453;-68
2022/04/22 09:04:45;;;;;;;17.43;8.80;;;13.30;99.90;;;;;;5114674;28;20452;-69
2022/04/22 09:07:13;;;;;;;14.50;9.60;;;13.40;99.90;;;;;;5114701;28;20466;-68
2022/04/22 09:09:40;;;;;;;11.70;9.07;;;13.40;99.90;;;;;;5114983;28;20467;-69
2022/04/22 09:12:08;;;;;;;23.43;10.27;;;13.50;99.90;;;;;;5114894;28;20467;-70
2022/04/22 09:14:35;;;;;;;16.53;9.10;;;13.50;99.90;;;;;;5121186;28;20484;-69
2022/04/22 09:17:02;;;;;;;11.17;9.97;;;13.50;99.90;;;;;;5121998;28;20908;-69
2022/04/22 09:19:35;;;;;;;13.00;9.60;;;13.50;99.90;;;;;;5122003;28;20467;-69
2022/04/22 09:22:03;;;;;;;12.13;9.47;;;13.50;99.90;;;;;;5121503;28;20501;-69
2022/04/22 09:24:30;;;;;;;10.73;9.43;;;13.40;99.90;;;;;;5120143;28;20533;-68
2022/04/22 09:27:08;;;;;;;10.70;9.37;;;13.50;99.90;;;;;;5119168;28;20467;-69
2022/04/22 09:29:42;;;;;;;12.00;8.80;;;13.50;99.90;;;;;;5118813;28;20456;-70
2022/04/22 09:32:11;;;;;;;15.37;10.37;;;13.60;99.90;;;;;;5118432;28;20466;-69
2022/04/22 09:34:39;;;;;;;14.17;10.00;;;13.60;99.90;;;;;;5117751;28;20955;-70
2022/04/22 09:42:51;;;;;;;15.23;10.97;;;13.80;99.90;;;;;;5118481;28;20485;-69
2022/04/22 09:45:18;;;;;;;14.20;10.73;;;13.90;99.90;;;;;;5119771;28;20973;-69
2022/04/22 09:47:57;;;;;;;13.30;10.23;;;14.00;99.90;;;;;;5119282;28;20456;-70
2022/04/22 09:50:40;;;;;;;14.70;11.67;;;14.00;99.90;;;;;;5118948;28;20448;-70
2022/04/22 09:53:09;;;;;;;15.70;11.07;;;14.10;99.90;;;;;;5118481;28;20880;-68
2022/04/22 09:55:36;;;;;;;62.50;41.00;;;14.20;99.90;;;;;;5118009;28;20484;-69
2022/04/22 09:58:03;;;;;;;17.20;14.37;;;14.40;99.90;;;;;;5118213;28;20535;-68
2022/04/22 10:00:31;;;;;;;13.90;10.97;;;14.50;99.90;;;;;;5117760;28;20915;-70
2022/04/22 10:02:58;;;;;;;13.33;11.60;;;14.70;99.90;;;;;;5117844;28;20961;-70
2022/04/22 10:05:26;;;;;;;14.13;11.50;;;14.80;99.90;;;;;;5117296;28;20452;-69
2022/04/22 10:07:55;;;;;;;17.80;12.47;;;14.90;99.90;;;;;;5118444;28;20900;-69
2022/04/22 10:10:29;;;;;;;14.80;12.60;;;15.00;99.90;;;;;;5119943;28;20861;-70
2022/04/22 10:12:58;;;;;;;13.40;12.00;;;15.10;99.90;;;;;;5118645;28;20621;-70
2022/04/22 10:15:28;;;;;;;19.63;16.03;;;15.20;99.90;;;;;;5117302;28;20567;-70
2022/04/22 10:17:55;;;;;;;13.70;12.20;;;15.30;99.90;;;;;;5116959;28;20485;-70
2022/04/22 10:20:23;;;;;;;14.00;12.17;;;15.30;99.90;;;;;;5117684;28;20509;-70
2022/04/22 10:22:51;;;;;;;15.17;12.63;;;15.40;99.90;;;;;;5117794;28;20539;-69
2022/04/22 10:25:18;;;;;;;15.30;12.90;;;15.40;99.90;;;;;;5117223;28;20457;-69
2022/04/22 10:27:47;;;;;;;14.60;12.37;;;15.40;99.90;;;;;;5117068;28;20452;-70
2022/04/22 10:30:15;;;;;;;12.60;11.40;;;15.50;99.90;;;;;;5117533;28;20456;-69
2022/04/22 10:32:45;;;;;;;15.30;13.70;;;15.50;99.90;;;;;;5117217;28;20468;-70
2022/04/22 10:35:14;;;;;;;14.30;12.87;;;15.50;99.90;;;;;;5118978;28;20488;-72
2022/04/22 10:37:41;;;;;;;14.90;13.40;;;15.50;99.90;;;;;;5117662;28;20456;-70
2022/04/22 10:40:19;;;;;;;18.87;15.53;;;15.40;99.90;;;;;;5116668;28;20452;-70
2022/04/22 10:42:47;;;;;;;21.60;13.03;;;15.40;99.90;;;;;;5116748;28;20528;-70
2022/04/22 10:47:58;;;;;;;66.63;21.60;;;15.40;99.90;;;;;;5116966;28;20558;-70
2022/04/22 10:50:32;;;;;;;34.50;16.10;;;15.40;99.90;;;;;;5118492;28;20445;-71
2022/04/22 10:53:04;;;;;;;15.23;13.63;;;15.40;99.90;;;;;;5118063;28;20754;-69
2022/04/22 10:55:32;;;;;;;21.37;17.67;;;15.50;99.90;;;;;;5117465;28;20985;-68
2022/04/22 10:58:25;;;;;;;14.80;13.30;;;15.60;99.90;;;;;;5117191;28;20467;-70
2022/04/22 11:00:55;;;;;;;14.00;12.40;;;15.60;99.90;;;;;;5116627;28;20900;-70
2022/04/22 11:03:23;;;;;;;19.50;17.50;;;15.60;99.90;;;;;;5116454;28;20456;-69
2022/04/22 11:05:56;;;;;;;16.03;12.77;;;15.60;99.90;;;;;;5116468;28;20457;-68
2022/04/22 11:08:32;;;;;;;15.77;14.17;;;15.70;99.90;;;;;;5116619;28;20784;-70
2022/04/22 11:11:02;;;;;;;16.30;13.20;;;15.80;99.90;;;;;;5116305;28;20452;-70
2022/04/22 11:13:33;;;;;;;17.60;13.47;;;15.90;99.90;;;;;;5116496;28;20865;-70
2022/04/22 11:16:00;;;;;;;17.37;14.90;;;15.90;99.90;;;;;;5116386;28;20464;-70
2022/04/22 11:18:27;;;;;;;16.20;14.50;;;15.80;99.90;;;;;;5116733;28;20467;-72
2022/04/22 11:21:02;;;;;;;17.57;14.77;;;15.80;99.90;;;;;;5116083;28;20921;-70
2022/04/22 11:23:35;;;;;;;17.33;15.27;;;15.70;99.90;;;;;;5116378;28;20502;-70
2022/04/22 11:26:03;;;;;;;17.10;15.30;;;15.60;99.90;;;;;;5117054;28;20498;-71
2022/04/22 11:28:35;;;;;;;18.67;15.53;;;15.50;99.90;;;;;;5115836;28;20513;-70
2022/04/22 11:31:05;;;;;;;18.60;16.83;;;15.40;99.90;;;;;;5116225;28;20844;-69
2022/04/22 11:33:43;;;;;;;19.87;17.10;;;15.30;99.90;;;;;;5116150;28;20540;-70
2022/04/22 11:36:10;;;;;;;19.27;17.27;;;15.20;99.90;;;;;;5115513;28;20956;-69
2022/04/22 11:38:45;;;;;;;55.33;43.17;;;15.20;99.90;;;;;;5116376;28;20784;-70
2022/04/22 11:41:13;;;;;;;22.60;20.07;;;15.10;99.90;;;;;;5115953;28;20917;-70
2022/04/22 11:43:41;;;;;;;24.10;17.70;;;15.10;99.90;;;;;;5116053;28;20547;-70
2022/04/22 11:46:09;;;;;;;21.17;19.00;;;15.10;99.90;;;;;;5116099;28;20547;-70
2022/04/22 11:48:44;;;;;;;20.40;18.20;;;15.10;99.90;;;;;;5115585;28;20607;-69
2022/04/22 11:51:10;;;;;;;26.33;22.10;;;15.10;99.90;;;;;;5115214;28;20782;-70
2022/04/22 11:53:37;;;;;;;29.23;22.83;;;15.10;99.90;;;;;;5115649;28;20463;-70
2022/04/22 11:56:05;;;;;;;23.00;18.83;;;15.10;99.90;;;;;;5115168;28;20485;-71
2022/04/22 11:58:33;;;;;;;28.43;20.70;;;15.20;99.90;;;;;;5115188;28;20930;-69
2022/04/22 12:06:29;;;;;;;22.40;20.00;;;15.10;99.90;;;;;;5115462;28;20420;-70
2022/04/22 12:09:00;;;;;;;21.90;19.33;;;15.10;99.90;;;;;;5115546;28;20962;-69
2022/04/22 12:11:27;;;;;;;23.23;20.73;;;15.00;99.90;;;;;;5115349;28;20527;-69
2022/04/22 12:13:55;;;;;;;22.90;20.50;;;14.90;99.90;;;;;;5115080;28;20457;-70
2022/04/22 12:16:24;;;;;;;23.60;20.57;;;14.90;99.90;;;;;;5114668;28;20470;-69
2022/04/22 12:18:53;;;;;;;23.93;21.43;;;14.80;99.90;;;;;;5115098;28;20464;-70
2022/04/22 12:21:22;;;;;;;25.87;23.20;;;14.80;99.90;;;;;;5114721;28;20460;-70
2022/04/22 12:23:51;;;;;;;29.53;24.90;;;14.70;99.90;;;;;;5115201;28;20448;-69
2022/04/22 12:26:20;;;;;;;23.83;21.27;;;14.70;99.90;;;;;;5114575;28;20464;-69
2022/04/22 12:28:57;;;;;;;24.87;21.70;;;14.60;99.90;;;;;;5114877;28;20547;-69
2022/04/22 12:31:27;;;;;;;24.27;21.63;;;14.60;99.90;;;;;;5115092;28;20456;-69
2022/04/22 12:33:58;;;;;;;24.77;21.00;;;14.60;99.90;;;;;;5114822;28;20457;-69
2022/04/22 12:36:25;;;;;;;24.73;20.37;;;14.70;99.90;;;;;;5114677;28;20560;-69
2022/04/22 12:38:52;;;;;;;21.47;18.67;;;14.70;99.90;;;;;;5114785;28;20561;-69
2022/04/22 12:41:22;;;;;;;19.90;17.93;;;14.80;99.90;;;;;;5114574;28;20536;-70
2022/04/22 12:43:50;;;;;;;19.93;17.73;;;15.00;99.90;;;;;;5115443;28;20535;-70
2022/04/22 12:52:14;;;;;;;20.77;18.20;;;15.30;99.90;;;;;;5115605;28;20517;-69
2022/04/22 12:54:42;;;;;;;20.17;18.03;;;15.40;99.90;;;;;;5114967;28;20436;-70
2022/04/22 12:57:12;;;;;;;20.83;18.33;;;15.50;99.90;;;;;;5115117;28;20512;-70
2022/04/22 12:59:43;;;;;;;19.63;17.13;;;15.60;99.90;;;;;;5115008;28;20466;-70
2022/04/22 13:02:13;;;;;;;20.97;18.33;;;15.70;99.90;;;;;;5114476;28;20452;-70
2022/04/22 13:04:54;;;;;;;21.27;18.97;;;15.90;99.90;;;;;;5114636;28;20459;-70
2022/04/22 13:07:21;;;;;;;19.80;17.70;;;16.00;99.90;;;;;;5114664;28;20452;-70
2022/04/22 13:09:48;;;;;;;22.93;20.57;;;16.30;99.90;;;;;;5114645;28;20535;-69
2022/04/22 13:12:15;;;;;;;19.73;17.63;;;16.70;99.90;;;;;;5114214;28;20536;-69
2022/04/22 13:14:42;;;;;;;20.00;17.90;;;16.90;99.90;;;;;;5115194;28;20483;-70
2022/04/22 13:17:24;;;;;;;18.90;16.57;;;17.00;99.90;;;;;;5114601;28;20472;-69
2022/04/22 13:19:51;;;;;;;24.80;15.93;;;17.00;99.90;;;;;;5114746;28;20433;-69
2022/04/22 13:22:17;;;;;;;19.80;16.20;;;16.90;99.90;;;;;;5114035;28;20909;-69
2022/04/22 13:24:45;;;;;;;16.97;15.23;;;17.00;99.90;;;;;;5114547;28;20468;-69
2022/04/22 13:27:13;;;;;;;18.53;15.20;;;17.00;99.90;;;;;;5114598;28;20455;-69
2022/04/22 13:29:41;;;;;;;17.90;15.37;;;17.10;99.90;;;;;;5114860;28;20452;-69
2022/04/22 13:32:08;;;;;;;15.60;14.00;;;17.10;99.90;;;;;;5114313;28;20494;-69
2022/04/22 13:34:37;;;;;;;15.30;13.83;;;17.00;99.90;;;;;;5114480;28;20456;-70
2022/04/22 13:37:04;;;;;;;16.90;12.30;;;16.80;99.90;;;;;;5114145;28;20809;-69
2022/04/22 13:39:31;;;;;;;14.50;13.00;;;16.60;99.90;;;;;;5113922;28;20483;-70
2022/04/22 13:41:58;;;;;;;13.80;12.40;;;16.50;99.90;;;;;;5114109;28;20920;-69
2022/04/22 13:52:38;;;;;;;15.67;12.90;;;16.00;99.90;;;;;;5114292;28;20749;-70
2022/04/22 13:55:05;;;;;;;68.60;45.23;;;15.80;99.90;;;;;;5113576;28;20488;-70
2022/04/22 13:57:32;;;;;;;14.87;12.90;;;15.70;99.90;;;;;;5113836;28;20893;-69
2022/04/22 13:59:59;;;;;;;15.67;12.93;;;15.50;99.90;;;;;;5116555;28;20892;-69